createdAt,value
2022-08-03T00:01:52.833Z,101074.53
2022-08-03T00:03:56.790Z,101085.13
2022-08-03T00:06:03.532Z,101079.66
2022-08-03T00:08:07.688Z,101080.47
2022-08-03T00:10:13.707Z,101071.50
2022-08-03T00:12:17.608Z,101075.19
2022-08-03T00:14:21.408Z,101079.84
2022-08-03T00:16:26.349Z,101073.06
2022-08-03T00:18:29.762Z,101068.69
2022-08-03T00:20:33.229Z,101065.09
2022-08-03T00:22:36.883Z,101053.63
2022-08-03T00:24:40.323Z,101068.56
2022-08-03T00:26:45.242Z,101066.59
2022-08-03T00:28:48.804Z,101057.66
2022-08-03T00:30:52.216Z,101064.47
2022-08-03T00:32:55.851Z,101067.09
2022-08-03T00:34:59.512Z,101051.28
2022-08-03T00:37:04.451Z,101062.69
2022-08-03T00:39:08.244Z,101062.59
2022-08-03T00:41:11.826Z,101060.00
2022-08-03T00:43:20.431Z,101064.31
2022-08-03T00:45:25.619Z,101071.66
2022-08-03T00:47:29.180Z,101065.50
2022-08-03T00:49:32.658Z,101042.66
2022-08-03T00:51:36.218Z,101056.78
2022-08-03T00:53:39.875Z,101061.25
2022-08-03T00:55:43.616Z,101059.50
2022-08-03T00:57:47.721Z,101059.50
2022-08-03T00:59:52.862Z,101065.63
2022-08-03T01:01:56.675Z,101069.19
2022-08-03T01:04:00.497Z,101058.59
2022-08-03T01:06:11.885Z,101045.44
2022-08-03T01:08:24.151Z,101050.94
2022-08-03T01:10:38.615Z,101047.63
2022-08-03T01:12:49.758Z,101049.00
2022-08-03T01:15:01.235Z,101051.94
2022-08-03T01:17:14.401Z,101048.75
2022-08-03T01:19:36.106Z,101047.25
2022-08-03T01:21:54.050Z,101044.84
2022-08-03T01:24:08.283Z,101052.88
2022-08-03T01:26:35.881Z,101049.34
2022-08-03T01:29:00.585Z,101056.47
2022-08-03T01:31:09.532Z,101060.22
2022-08-03T01:33:16.848Z,101054.03
2022-08-03T01:35:27.219Z,101054.66
2022-08-03T01:37:36.326Z,101047.44
2022-08-03T01:39:44.051Z,101052.75
2022-08-03T01:41:51.736Z,101052.50
2022-08-03T01:44:29.688Z,101049.78
2022-08-03T01:46:22.870Z,101054.13
2022-08-03T01:48:27.407Z,101049.69
2022-08-03T01:50:34.344Z,101048.75
2022-08-03T01:52:41.330Z,101040.81
2022-08-03T01:54:47.615Z,101044.34
2022-08-03T01:56:53.475Z,101053.06
2022-08-03T01:58:59.866Z,101049.47
2022-08-03T02:01:04.667Z,101037.16
2022-08-03T02:03:10.892Z,101040.53
2022-08-03T02:05:15.868Z,101000.09
2022-08-03T02:07:20.665Z,101038.53
2022-08-03T02:09:24.837Z,101029.81
2022-08-03T02:11:31.730Z,101039.38
2022-08-03T02:13:36.504Z,101041.19
2022-08-03T02:15:40.937Z,101039.38
2022-08-03T02:17:46.811Z,101034.84
2022-08-03T02:19:52.737Z,101044.63
2022-08-03T02:22:01.119Z,101028.00
2022-08-03T02:24:06.844Z,101038.59
2022-08-03T02:26:15.793Z,101041.34
2022-08-03T02:28:21.959Z,101037.94
2022-08-03T02:30:31.876Z,101044.97
2022-08-03T02:32:38.902Z,101033.53
2022-08-03T02:34:46.212Z,101038.38
2022-08-03T02:36:54.709Z,101046.41
2022-08-03T02:39:01.700Z,101045.47
2022-08-03T02:41:09.402Z,101040.25
2022-08-03T02:43:19.016Z,101030.59
2022-08-03T02:45:27.278Z,101015.66
2022-08-03T02:47:53.588Z,101013.13
2022-08-03T02:49:58.448Z,101032.47
2022-08-03T02:52:05.788Z,101026.22
2022-08-03T02:54:19.253Z,101026.31
2022-08-03T02:56:25.219Z,101027.16
2022-08-03T02:58:30.437Z,101033.38
2022-08-03T03:00:35.474Z,101006.22
2022-08-03T03:02:43.991Z,101031.66
2022-08-03T03:05:51.078Z,101030.72
2022-08-03T03:07:18.698Z,101027.91
2022-08-03T03:09:22.823Z,101033.94
2022-08-03T03:11:27.214Z,101034.09
2022-08-03T03:13:31.956Z,101043.81
2022-08-03T03:15:37.790Z,101024.31
2022-08-03T03:17:43.813Z,101029.78
2022-08-03T03:19:48.510Z,101039.47
2022-08-03T03:21:53.415Z,101036.03
2022-08-03T03:23:58.912Z,101040.63
2022-08-03T03:26:03.030Z,101043.19
2022-08-03T03:28:07.208Z,101043.19
2022-08-03T03:30:11.572Z,101022.97
2022-08-03T03:32:15.656Z,101038.69
2022-08-03T03:34:20.235Z,101026.34
2022-08-03T03:36:23.657Z,101034.25
2022-08-03T03:38:27.421Z,101028.28
2022-08-03T03:40:32.355Z,101027.44
2022-08-03T03:42:36.015Z,101043.28
2022-08-03T03:44:39.703Z,101046.03
2022-08-03T03:46:43.496Z,101042.53
2022-08-03T03:48:47.105Z,101031.19
2022-08-03T03:50:51.343Z,101041.72
2022-08-03T03:52:54.823Z,101040.91
2022-08-03T03:55:01.037Z,101033.88
2022-08-03T03:57:06.536Z,101037.38
2022-08-03T03:59:10.024Z,101042.59
2022-08-03T04:01:14.332Z,101045.16
2022-08-03T04:03:17.969Z,101024.94
2022-08-03T04:05:42.915Z,101049.44
2022-08-03T04:08:16.072Z,101041.59
2022-08-03T04:10:48.527Z,101048.59
2022-08-03T04:12:55.144Z,101049.53
2022-08-03T04:15:02.041Z,101044.13
2022-08-03T04:17:09.911Z,101047.63
2022-08-03T04:19:23.088Z,101047.63
2022-08-03T04:21:27.785Z,101038.69
2022-08-03T04:23:34.804Z,101047.63
2022-08-03T04:25:40.850Z,101042.50
2022-08-03T04:27:45.497Z,101051.41
2022-08-03T04:30:11.837Z,101050.63
2022-08-03T04:32:16.629Z,101049.78
2022-08-03T04:34:20.826Z,101052.38
2022-08-03T04:36:32.998Z,101054.91
2022-08-03T04:38:45.216Z,101045.25
2022-08-03T04:40:49.550Z,101062.88
2022-08-03T04:42:56.163Z,101067.31
2022-08-03T04:45:01.697Z,101054.06
2022-08-03T04:47:06.979Z,101062.69
2022-08-03T04:49:11.258Z,101068.19
2022-08-03T04:51:15.939Z,101069.97
2022-08-03T04:53:19.527Z,101057.84
2022-08-03T04:55:29.490Z,101052.75
2022-08-03T04:57:32.981Z,101058.28
2022-08-03T04:59:36.429Z,101036.28
2022-08-03T05:01:44.647Z,101060.06
2022-08-03T05:03:49.593Z,101058.22
2022-08-03T05:05:53.100Z,101061.72
2022-08-03T05:08:05.993Z,101066.31
2022-08-03T05:10:16.378Z,101059.97
2022-08-03T05:12:20.291Z,101053.75
2022-08-03T05:14:28.186Z,101063.44
2022-08-03T05:16:32.063Z,101062.34
2022-08-03T05:18:35.909Z,101046.47
2022-08-03T05:20:40.746Z,101064.78
2022-08-03T05:22:44.220Z,101069.97
2022-08-03T05:24:47.729Z,101062.03
2022-08-03T05:26:51.286Z,101062.88
2022-08-03T05:28:54.759Z,101072.38
2022-08-03T05:30:58.439Z,101064.41
2022-08-03T05:33:02.412Z,101078.47
2022-08-03T05:36:01.805Z,101081.88
2022-08-03T05:37:31.581Z,101079.09
2022-08-03T05:39:35.379Z,101060.53
2022-08-03T05:41:38.829Z,101078.22
2022-08-03T05:43:42.312Z,101074.63
2022-08-03T05:45:45.777Z,101074.88
2022-08-03T05:47:50.960Z,101078.41
2022-08-03T05:49:54.363Z,101076.69
2022-08-03T05:51:59.988Z,101073.28
2022-08-03T05:54:14.850Z,101054.75
2022-08-03T05:56:18.352Z,101065.38
2022-08-03T05:58:22.049Z,101050.63
2022-08-03T06:00:25.721Z,101069.03
2022-08-03T06:02:29.513Z,101069.03
2022-08-03T06:04:33.156Z,101068.25
2022-08-03T06:06:36.697Z,101048.84
2022-08-03T06:08:40.793Z,101073.34
2022-08-03T06:10:45.534Z,101070.50
2022-08-03T06:12:49.482Z,101081.91
2022-08-03T06:14:52.864Z,101081.91
2022-08-03T06:16:56.384Z,101074.88
2022-08-03T06:18:59.758Z,101070.28
2022-08-03T06:21:14.651Z,101075.50
2022-08-03T06:23:19.556Z,101079.81
2022-08-03T06:25:23.355Z,101079.63
2022-08-03T06:27:36.505Z,101079.44
2022-08-03T06:29:40.893Z,101074.06
2022-08-03T06:31:44.573Z,101070.47
2022-08-03T06:33:48.423Z,101077.31
2022-08-03T06:36:12.170Z,101078.25
2022-08-03T06:38:15.872Z,101080.84
2022-08-03T06:40:24.550Z,101050.72
2022-08-03T06:42:30.248Z,101076.47
2022-08-03T06:44:33.677Z,101073.81
2022-08-03T06:46:37.075Z,101078.41
2022-08-03T06:48:40.666Z,101081.94
2022-08-03T06:50:44.604Z,101081.00
2022-08-03T06:52:48.063Z,101072.88
2022-08-03T06:54:51.544Z,101071.94
2022-08-03T06:56:55.194Z,101078.84
2022-08-03T06:59:00.336Z,101087.47
2022-08-03T07:01:03.797Z,101094.44
2022-08-03T07:03:07.327Z,101034.63
2022-08-03T07:05:11.242Z,101090.81
2022-08-03T07:07:15.212Z,101087.22
2022-08-03T07:09:18.635Z,101086.34
2022-08-03T07:11:22.085Z,101076.66
2022-08-03T07:13:25.533Z,101079.22
2022-08-03T07:15:38.397Z,101086.13
2022-08-03T07:17:54.379Z,101077.38
2022-08-03T07:19:57.978Z,101089.53
2022-08-03T07:22:04.290Z,101079.84
2022-08-03T07:24:08.200Z,101042.06
2022-08-03T07:26:11.674Z,101092.72
2022-08-03T07:28:15.178Z,101095.41
2022-08-03T07:30:19.098Z,101097.19
2022-08-03T07:32:24.385Z,101090.81
2022-08-03T07:34:27.990Z,101096.00
2022-08-03T07:36:32.198Z,101101.13
2022-08-03T07:38:38.516Z,101092.09
2022-08-03T07:40:45.849Z,101090.25
2022-08-03T07:42:52.108Z,101091.81
2022-08-03T07:44:57.304Z,101074.03
2022-08-03T07:47:03.328Z,101091.34
2022-08-03T07:49:08.916Z,101101.06
2022-08-03T07:51:12.373Z,101095.53
2022-08-03T07:53:15.817Z,101094.56
2022-08-03T07:55:21.461Z,101088.09
2022-08-03T07:57:25.044Z,101069.72
2022-08-03T07:59:28.533Z,101083.50
2022-08-03T08:01:53.508Z,101085.56
2022-08-03T08:03:57.007Z,101085.41
2022-08-03T08:06:01.741Z,101087.69
2022-08-03T08:08:05.892Z,101082.97
2022-08-03T08:10:10.964Z,101066.22
2022-08-03T08:12:15.683Z,101083.63
2022-08-03T08:14:19.599Z,101086.91
2022-08-03T08:16:23.028Z,101078.63
2022-08-03T08:18:29.494Z,101088.09
2022-08-03T08:20:34.976Z,101080.66
2022-08-03T08:22:42.905Z,101082.59
2022-08-03T08:24:49.097Z,101079.78
2022-08-03T08:26:54.438Z,101076.25
2022-08-03T08:28:57.845Z,101079.78
2022-08-03T08:31:01.309Z,101077.78
2022-08-03T08:33:05.032Z,101081.09
2022-08-03T08:35:10.323Z,101084.34
2022-08-03T08:37:13.756Z,101078.94
2022-08-03T08:39:18.539Z,101082.16
2022-08-03T08:41:22.694Z,101080.06
2022-08-03T08:43:26.218Z,101082.81
2022-08-03T08:45:29.906Z,101082.84
2022-08-03T08:47:51.433Z,101082.69
2022-08-03T08:50:09.186Z,101075.97
2022-08-03T08:52:22.076Z,101076.66
2022-08-03T08:54:32.477Z,101067.88
2022-08-03T08:56:38.469Z,101085.28
2022-08-03T08:58:48.111Z,101079.44
2022-08-03T09:00:53.530Z,101073.88
2022-08-03T09:02:57.212Z,101069.31
2022-08-03T09:05:06.910Z,101076.34
2022-08-03T09:07:20.027Z,101074.91
2022-08-03T09:10:04.790Z,101073.78
2022-08-03T09:12:00.979Z,101081.03
2022-08-03T09:14:08.341Z,101074.81
2022-08-03T09:16:13.830Z,101074.13
2022-08-03T09:18:32.336Z,101072.00
2022-08-03T09:20:37.157Z,101077.25
2022-08-03T09:22:53.765Z,101075.13
2022-08-03T09:25:22.962Z,101077.91
2022-08-03T09:27:23.883Z,101073.84
2022-08-03T09:29:27.406Z,101073.84
2022-08-03T09:31:32.213Z,101074.28
2022-08-03T09:33:48.390Z,101074.69
2022-08-03T09:35:53.968Z,101073.41
2022-08-03T09:38:14.220Z,101081.91
2022-08-03T09:40:35.698Z,101073.44
2022-08-03T09:42:57.546Z,101071.88
2022-08-03T09:45:01.128Z,101068.19
2022-08-03T09:47:05.772Z,101070.53
2022-08-03T09:49:13.072Z,101067.81
2022-08-03T09:52:27.322Z,101070.38
2022-08-03T09:53:49.579Z,101069.41
2022-08-03T09:56:33.467Z,101067.84
2022-08-03T09:58:30.944Z,101060.50
2022-08-03T10:00:46.645Z,101070.91
2022-08-03T10:02:50.635Z,101071.41
2022-08-03T10:04:55.281Z,101072.41
2022-08-03T10:07:07.687Z,101066.09
2022-08-03T10:09:12.677Z,101065.28
2022-08-03T10:11:30.672Z,101060.13
2022-08-03T10:13:37.229Z,101059.69
2022-08-03T10:16:22.329Z,101045.22
2022-08-03T10:18:04.540Z,101056.19
2022-08-03T10:20:10.263Z,101049.91
2022-08-03T10:22:15.539Z,101049.31
2022-08-03T10:24:25.437Z,101049.19
2022-08-03T10:26:32.103Z,101050.56
2022-08-03T10:28:44.953Z,101047.69
2022-08-03T10:30:51.220Z,101046.09
2022-08-03T10:33:01.888Z,101045.66
2022-08-03T10:35:19.566Z,101043.41
2022-08-03T10:37:26.088Z,101041.31
2022-08-03T10:39:31.423Z,101040.63
2022-08-03T10:41:40.912Z,101035.41
2022-08-03T10:43:51.645Z,101030.91
2022-08-03T10:45:56.186Z,101020.41
2022-08-03T10:48:01.238Z,101020.06
2022-08-03T10:50:06.189Z,101023.56
2022-08-03T10:52:13.465Z,101016.84
2022-08-03T10:54:58.781Z,101007.81
2022-08-03T10:57:20.469Z,101012.88
2022-08-03T10:59:57.077Z,101017.97
2022-08-03T11:02:01.892Z,101003.75
2022-08-03T11:04:19.127Z,101007.22
2022-08-03T11:06:25.486Z,101004.03
2022-08-03T11:08:31.465Z,101000.72
2022-08-03T11:10:34.870Z,100994.41
2022-08-03T11:12:40.027Z,101001.28
2022-08-03T11:14:48.226Z,100997.38
2022-08-03T11:17:07.843Z,100992.16
2022-08-03T11:19:22.680Z,100994.53
2022-08-03T11:22:07.565Z,100996.91
2022-08-03T11:24:11.012Z,100990.69
2022-08-03T11:26:18.574Z,100992.59
2022-08-03T11:28:29.397Z,100990.28
2022-08-03T11:30:34.181Z,101000.06
2022-08-03T11:32:59.854Z,100999.13
2022-08-03T11:35:12.620Z,100984.22
2022-08-03T11:37:28.543Z,100996.13
2022-08-03T11:39:43.502Z,100996.22
2022-08-03T11:41:46.937Z,100999.81
2022-08-03T11:43:50.277Z,101000.47
2022-08-03T11:45:58.940Z,100999.88
2022-08-03T11:48:14.733Z,100993.59
2022-08-03T11:50:20.173Z,100995.72
2022-08-03T11:52:27.282Z,100991.72
2022-08-03T11:54:32.674Z,100991.03
2022-08-03T11:56:45.907Z,100990.72
2022-08-03T11:59:10.956Z,100993.41
2022-08-03T12:01:21.213Z,100996.69
2022-08-03T12:03:26.480Z,100996.00
2022-08-03T12:05:51.202Z,100999.53
2022-08-03T12:08:04.123Z,100993.88
2022-08-03T12:10:11.425Z,100998.03
2022-08-03T12:12:17.229Z,100983.50
2022-08-03T12:14:49.326Z,100992.81
2022-08-03T12:16:48.124Z,100973.56
2022-08-03T12:18:56.552Z,100984.31
2022-08-03T12:21:08.224Z,100982.22
2022-08-03T12:23:12.790Z,100968.28
2022-08-03T12:25:39.548Z,100975.38
2022-08-03T12:27:43.370Z,100973.28
2022-08-03T12:29:57.233Z,100975.41
2022-08-03T12:32:02.624Z,100971.78
2022-08-03T12:34:08.798Z,100965.06
2022-08-03T12:36:13.492Z,100972.19
2022-08-03T12:38:22.820Z,100965.06
2022-08-03T12:40:28.474Z,100964.84
2022-08-03T12:42:32.728Z,100967.03
2022-08-03T12:44:37.465Z,100965.13
2022-08-03T12:46:47.456Z,100971.78
2022-08-03T12:49:06.837Z,100968.38
2022-08-03T12:51:11.776Z,100964.81
2022-08-03T12:53:30.041Z,100966.88
2022-08-03T12:56:01.481Z,100966.19
2022-08-03T12:58:01.255Z,100961.78
2022-08-03T13:00:21.376Z,100965.13
2022-08-03T13:02:32.788Z,100965.16
2022-08-03T13:04:37.348Z,100967.59
2022-08-03T13:06:40.822Z,100965.50
2022-08-03T13:08:47.908Z,100965.16
2022-08-03T13:10:51.559Z,100953.09
2022-08-03T13:12:58.397Z,100962.63
2022-08-03T13:15:02.543Z,100958.13
2022-08-03T13:17:07.075Z,100958.28
2022-08-03T13:19:15.728Z,100963.44
2022-08-03T13:21:21.584Z,100961.97
2022-08-03T13:23:24.993Z,100952.97
2022-08-03T13:25:29.859Z,100953.44
2022-08-03T13:28:04.353Z,100954.41
2022-08-03T13:29:57.214Z,100957.38
2022-08-03T13:32:00.746Z,100954.38
2022-08-03T13:34:04.116Z,100957.00
2022-08-03T13:36:08.045Z,100945.53
2022-08-03T13:38:11.530Z,100946.31
2022-08-03T13:40:15.191Z,100944.66
2022-08-03T13:42:20.090Z,100942.00
2022-08-03T13:44:29.258Z,100938.59
2022-08-03T13:46:34.463Z,100940.31
2022-08-03T13:48:38.073Z,100940.19
2022-08-03T13:50:43.157Z,100931.88
2022-08-03T13:52:47.476Z,100934.84
2022-08-03T13:54:50.918Z,100932.59
2022-08-03T13:56:57.805Z,100924.81
2022-08-03T13:59:06.148Z,100932.03
2022-08-03T14:01:09.958Z,100930.50
2022-08-03T14:03:14.662Z,100927.22
2022-08-03T14:05:18.538Z,100921.06
2022-08-03T14:07:21.921Z,100918.91
2022-08-03T14:09:25.621Z,100916.84
2022-08-03T14:12:04.014Z,100912.91
2022-08-03T14:13:52.969Z,100924.94
2022-08-03T14:15:57.751Z,100912.00
2022-08-03T14:18:02.555Z,100912.22
2022-08-03T14:20:36.288Z,100911.75
2022-08-03T14:22:30.730Z,100897.31
2022-08-03T14:24:34.114Z,100907.97
2022-08-03T14:26:37.588Z,100905.22
2022-08-03T14:28:41.920Z,100904.03
2022-08-03T14:30:45.474Z,100905.94
2022-08-03T14:32:50.292Z,100909.81
2022-08-03T14:34:53.825Z,100896.97
2022-08-03T14:36:57.290Z,100884.44
2022-08-03T14:39:01.591Z,100887.59
2022-08-03T14:41:05.184Z,100890.81
2022-08-03T14:43:08.569Z,100874.56
2022-08-03T14:45:20.353Z,100883.78
2022-08-03T14:47:24.271Z,100872.09
2022-08-03T14:50:37.685Z,100871.47
2022-08-03T14:51:53.826Z,100878.19
2022-08-03T14:53:57.578Z,100875.75
2022-08-03T14:56:01.028Z,100867.34
2022-08-03T14:58:05.779Z,100855.59
2022-08-03T15:00:23.459Z,100876.56
2022-08-03T15:02:27.918Z,100861.13
2022-08-03T15:04:32.844Z,100861.28
2022-08-03T15:06:36.678Z,100869.34
2022-08-03T15:08:40.100Z,100863.59
2022-08-03T15:10:44.892Z,100858.66
2022-08-03T15:12:49.060Z,100859.34
2022-08-03T15:14:52.506Z,100850.53
2022-08-03T15:16:55.923Z,100851.09
2022-08-03T15:19:00.852Z,100854.19
2022-08-03T15:21:05.705Z,100856.41
2022-08-03T15:23:09.126Z,100848.72
2022-08-03T15:26:32.397Z,100848.75
2022-08-03T15:27:36.377Z,100844.44
2022-08-03T15:30:07.060Z,100847.25
2022-08-03T15:32:13.644Z,100825.94
2022-08-03T15:34:17.071Z,100838.41
2022-08-03T15:36:22.272Z,100830.41
2022-08-03T15:38:26.360Z,100833.63
2022-08-03T15:40:29.960Z,100836.59
2022-08-03T15:42:35.999Z,100815.44
2022-08-03T15:44:39.663Z,100830.56
2022-08-03T15:46:43.127Z,100831.16
2022-08-03T15:48:46.875Z,100827.59
2022-08-03T15:50:50.411Z,100829.53
2022-08-03T15:52:56.990Z,100828.09
2022-08-03T15:55:00.556Z,100827.25
2022-08-03T15:57:04.031Z,100823.88
2022-08-03T15:59:13.379Z,100830.53
2022-08-03T16:01:19.791Z,100822.59
2022-08-03T16:03:23.581Z,100827.03
2022-08-03T16:05:27.022Z,100826.22
2022-08-03T16:08:03.250Z,100834.09
2022-08-03T16:10:10.527Z,100815.88
2022-08-03T16:12:16.426Z,100826.25
2022-08-03T16:14:34.261Z,100826.19
2022-08-03T16:16:41.316Z,100825.91
2022-08-03T16:18:44.805Z,100824.38
2022-08-03T16:20:48.804Z,100815.59
2022-08-03T16:22:52.351Z,100820.28
2022-08-03T16:24:56.095Z,100807.84
2022-08-03T16:27:01.078Z,100809.72
2022-08-03T16:29:05.126Z,100808.38
2022-08-03T16:31:27.198Z,100806.38
2022-08-03T16:33:30.626Z,100819.25
2022-08-03T16:35:34.419Z,100812.34
2022-08-03T16:37:39.173Z,100816.38
2022-08-03T16:39:42.994Z,100813.31
2022-08-03T16:41:54.378Z,100815.31
2022-08-03T16:44:09.907Z,100808.88
2022-08-03T16:46:13.409Z,100815.66
2022-08-03T16:48:17.496Z,100817.78
2022-08-03T16:50:21.096Z,100814.59
2022-08-03T16:52:25.950Z,100809.81
2022-08-03T16:54:29.306Z,100808.84
2022-08-03T16:56:32.800Z,100810.81
2022-08-03T16:58:41.906Z,100815.25
2022-08-03T17:00:47.914Z,100810.59
2022-08-03T17:02:58.550Z,100816.56
2022-08-03T17:05:02.159Z,100813.56
2022-08-03T17:07:06.883Z,100813.06
2022-08-03T17:09:15.422Z,100812.53
2022-08-03T17:11:21.779Z,100809.16
2022-08-03T17:13:38.750Z,100806.69
2022-08-03T17:15:57.967Z,100814.28
2022-08-03T17:18:06.425Z,100808.38
2022-08-03T17:20:13.338Z,100808.59
2022-08-03T17:22:20.773Z,100807.03
2022-08-03T17:24:30.037Z,100790.56
2022-08-03T17:26:38.412Z,100802.28
2022-08-03T17:28:58.109Z,100812.78
2022-08-03T17:31:22.920Z,100811.41
2022-08-03T17:33:35.585Z,100804.25
2022-08-03T17:35:39.104Z,100801.13
2022-08-03T17:38:04.045Z,100804.59
2022-08-03T17:40:08.216Z,100802.75
2022-08-03T17:42:29.258Z,100801.41
2022-08-03T17:44:46.024Z,100799.75
2022-08-03T17:46:52.201Z,100811.28
2022-08-03T17:48:57.090Z,100809.44
2022-08-03T17:51:07.338Z,100811.81
2022-08-03T17:53:25.423Z,100810.72
2022-08-03T17:55:56.942Z,100818.75
2022-08-03T17:58:02.230Z,100810.38
2022-08-03T18:00:22.939Z,100807.44
2022-08-03T18:02:55.576Z,100818.00
2022-08-03T18:05:16.369Z,100818.31
2022-08-03T18:07:23.378Z,100821.56
2022-08-03T18:10:03.864Z,100824.50
2022-08-03T18:12:17.797Z,100808.69
2022-08-03T18:14:28.543Z,100810.56
2022-08-03T18:16:35.641Z,100809.06
2022-08-03T18:18:45.103Z,100814.03
2022-08-03T18:20:53.489Z,100808.25
2022-08-03T18:22:57.926Z,100805.63
2022-08-03T18:25:09.478Z,100810.44
2022-08-03T18:27:19.432Z,100807.88
2022-08-03T18:29:23.734Z,100805.41
2022-08-03T18:32:00.471Z,100795.88
2022-08-03T18:34:17.506Z,100810.88
2022-08-03T18:36:22.081Z,100810.38
2022-08-03T18:38:43.569Z,100801.66
2022-08-03T18:40:50.098Z,100798.00
2022-08-03T18:42:54.840Z,100808.28
2022-08-03T18:44:58.530Z,100805.19
2022-08-03T18:47:51.520Z,100805.97
2022-08-03T18:50:08.587Z,100810.91
2022-08-03T18:52:17.627Z,100804.16
2022-08-03T18:54:57.256Z,100807.06
2022-08-03T18:56:54.923Z,100789.34
2022-08-03T18:59:02.588Z,100805.69
2022-08-03T19:01:15.223Z,100809.66
2022-08-03T19:03:43.391Z,100805.59
2022-08-03T19:06:06.324Z,100797.25
2022-08-03T19:08:17.047Z,100803.25
2022-08-03T19:10:21.335Z,100808.56
2022-08-03T19:12:39.575Z,100807.50
2022-08-03T19:14:48.323Z,100812.44
2022-08-03T19:17:00.555Z,100813.47
2022-08-03T19:19:05.660Z,100810.28
2022-08-03T19:21:12.759Z,100808.91
2022-08-03T19:23:23.998Z,100818.72
2022-08-03T19:25:34.508Z,100817.34
2022-08-03T19:27:40.414Z,100820.97
2022-08-03T19:29:59.820Z,100819.41
2022-08-03T19:32:05.040Z,100826.00
2022-08-03T19:34:08.683Z,100829.06
2022-08-03T19:36:15.035Z,100829.22
2022-08-03T19:38:27.628Z,100823.22
2022-08-03T19:40:34.270Z,100823.41
2022-08-03T19:42:45.415Z,100819.94
2022-08-03T19:44:52.842Z,100827.56
2022-08-03T19:47:01.630Z,100837.06
2022-08-03T19:49:10.345Z,100832.91
2022-08-03T19:51:15.710Z,100827.16
2022-08-03T19:53:21.425Z,100830.13
2022-08-03T19:55:29.656Z,100821.59
2022-08-03T19:57:37.205Z,100821.78
2022-08-03T19:59:49.751Z,100824.66
2022-08-03T20:01:54.094Z,100822.91
2022-08-03T20:03:58.517Z,100818.78
2022-08-03T20:06:03.701Z,100820.06
2022-08-03T20:08:09.474Z,100815.19
2022-08-03T20:10:13.344Z,100822.41
2022-08-03T20:12:19.278Z,100823.56
2022-08-03T20:14:32.032Z,100821.16
2022-08-03T20:16:35.658Z,100821.34
2022-08-03T20:18:39.662Z,100819.97
2022-08-03T20:20:43.240Z,100796.75
2022-08-03T20:22:52.653Z,100822.47
2022-08-03T20:24:58.675Z,100820.06
2022-08-03T20:27:03.713Z,100818.16
2022-08-03T20:29:12.825Z,100815.31
2022-08-03T20:31:16.660Z,100816.25
2022-08-03T20:33:20.842Z,100821.94
2022-08-03T20:35:38.236Z,100821.16
2022-08-03T20:37:45.483Z,100822.22
2022-08-03T20:39:49.762Z,100828.72
2022-08-03T20:41:54.958Z,100826.25
2022-08-03T20:44:00.898Z,100824.59
2022-08-03T20:46:29.170Z,100810.13
2022-08-03T20:48:28.011Z,100830.38
2022-08-03T20:50:32.449Z,100816.31
2022-08-03T20:52:43.978Z,100821.91
2022-08-03T20:54:53.391Z,100815.75
2022-08-03T20:56:58.812Z,100821.22
2022-08-03T20:59:04.100Z,100822.34
2022-08-03T21:01:07.549Z,100818.94
2022-08-03T21:03:12.567Z,100817.44
2022-08-03T21:05:16.146Z,100815.78
2022-08-03T21:07:25.579Z,100813.34
2022-08-03T21:09:52.960Z,100813.09
2022-08-03T21:12:04.117Z,100818.22
2022-08-03T21:14:16.325Z,100812.13
2022-08-03T21:16:21.514Z,100820.28
2022-08-03T21:18:26.893Z,100802.72
2022-08-03T21:20:34.218Z,100806.81
2022-08-03T21:22:39.737Z,100809.84
2022-08-03T21:24:44.660Z,100813.22
2022-08-03T21:26:50.150Z,100814.91
2022-08-03T21:28:56.924Z,100816.97
2022-08-03T21:31:00.491Z,100813.41
2022-08-03T21:33:06.553Z,100808.72
2022-08-03T21:35:11.194Z,100809.69
2022-08-03T21:37:15.764Z,100810.06
2022-08-03T21:39:21.147Z,100801.94
2022-08-03T21:41:24.720Z,100814.56
2022-08-03T21:43:28.277Z,100802.66
2022-08-03T21:45:36.470Z,100803.25
2022-08-03T21:47:45.156Z,100807.53
2022-08-03T21:50:06.649Z,100807.41
2022-08-03T21:52:13.921Z,100808.75
2022-08-03T21:54:19.131Z,100814.56
2022-08-03T21:56:23.380Z,100788.41
2022-08-03T21:58:30.946Z,100784.19
2022-08-03T22:00:35.961Z,100793.34
2022-08-03T22:02:42.632Z,100805.75
2022-08-03T22:04:53.250Z,100802.41
2022-08-03T22:07:00.158Z,100789.88
2022-08-03T22:09:06.422Z,100800.81
2022-08-03T22:11:10.975Z,100799.91
2022-08-03T22:13:19.480Z,100800.59
2022-08-03T22:15:40.682Z,100796.44
2022-08-03T22:17:55.037Z,100794.88
2022-08-03T22:20:00.036Z,100796.25
2022-08-03T22:22:06.073Z,100803.22
2022-08-03T22:24:09.822Z,100804.16
2022-08-03T22:26:18.913Z,100808.06
2022-08-03T22:28:38.664Z,100802.59
2022-08-03T22:30:44.256Z,100804.50
2022-08-03T22:32:50.308Z,100805.38
2022-08-03T22:34:54.779Z,100797.25
2022-08-03T22:37:03.045Z,100795.78
2022-08-03T22:39:07.071Z,100801.16
2022-08-03T22:41:10.663Z,100803.97
2022-08-03T22:43:14.454Z,100798.59
2022-08-03T22:46:08.930Z,100795.94
2022-08-03T22:47:44.460Z,100794.34
2022-08-03T22:49:49.998Z,100799.97
2022-08-03T22:52:15.888Z,100788.31
2022-08-03T22:54:19.934Z,100792.03
2022-08-03T22:56:24.214Z,100792.16
2022-08-03T22:58:27.669Z,100782.41
2022-08-03T23:00:31.247Z,100781.91
2022-08-03T23:02:37.308Z,100773.56
2022-08-03T23:04:43.384Z,100787.91
2022-08-03T23:06:52.072Z,100793.66
2022-08-03T23:08:56.441Z,100790.31
2022-08-03T23:11:05.847Z,100790.31
2022-08-03T23:13:09.504Z,100793.78
2022-08-03T23:15:14.530Z,100795.72
2022-08-03T23:17:20.691Z,100793.91
2022-08-03T23:19:27.536Z,100786.66
2022-08-03T23:21:53.733Z,100789.56
2022-08-03T23:24:00.497Z,100793.03
2022-08-03T23:26:04.522Z,100792.34
2022-08-03T23:28:10.048Z,100789.69
2022-08-03T23:30:13.984Z,100786.63
2022-08-03T23:32:21.940Z,100772.91
2022-08-03T23:34:44.060Z,100785.38
2022-08-03T23:36:50.688Z,100786.25
2022-08-03T23:38:55.408Z,100788.13
2022-08-03T23:41:00.759Z,100785.38
2022-08-03T23:43:05.440Z,100741.75
2022-08-03T23:45:10.238Z,100786.41
2022-08-03T23:47:13.971Z,100778.50
2022-08-03T23:49:17.533Z,100778.50
2022-08-03T23:51:28.715Z,100785.69
2022-08-03T23:53:41.840Z,100780.63
2022-08-03T23:56:14.022Z,100773.09
2022-08-03T23:58:31.712Z,100773.97
